createdAt,value
2022-08-10T00:00:41.110Z,979.59
2022-08-10T00:01:41.129Z,979.64
2022-08-10T00:02:41.100Z,979.56
2022-08-10T00:03:41.045Z,979.59
2022-08-10T00:04:41.015Z,979.54
2022-08-10T00:05:43.476Z,979.59
2022-08-10T00:06:42.029Z,979.58
2022-08-10T00:07:40.971Z,979.49
2022-08-10T00:08:40.966Z,979.55
2022-08-10T00:09:50.873Z,979.53
2022-08-10T00:10:41.911Z,979.53
2022-08-10T00:11:40.950Z,979.58
2022-08-10T00:12:54.242Z,979.57
2022-08-10T00:13:41.972Z,979.58
2022-08-10T00:14:40.856Z,979.52
2022-08-10T00:15:52.201Z,979.56
2022-08-10T00:16:41.841Z,979.54
2022-08-10T00:17:40.789Z,979.53
2022-08-10T00:18:40.789Z,979.53
2022-08-10T00:20:03.785Z,979.52
2022-08-10T00:20:41.768Z,979.52
2022-08-10T00:21:40.771Z,979.55
2022-08-10T00:22:57.563Z,979.52
2022-08-10T00:23:41.702Z,979.57
2022-08-10T00:24:43.202Z,979.53
2022-08-10T00:25:41.673Z,979.55
2022-08-10T00:27:57.836Z,979.54
2022-08-10T00:27:58.876Z,979.54
2022-08-10T00:28:41.626Z,979.47
2022-08-10T00:29:40.609Z,979.53
2022-08-10T00:30:40.875Z,979.49
2022-08-10T00:31:55.976Z,979.51
2022-08-10T00:32:41.560Z,979.45
2022-08-10T00:33:40.542Z,979.45
2022-08-10T00:34:40.540Z,979.43
2022-08-10T00:35:40.508Z,979.37
2022-08-10T00:36:40.518Z,979.42
2022-08-10T00:37:40.485Z,979.35
2022-08-10T00:38:40.460Z,979.37
2022-08-10T00:39:40.567Z,979.37
2022-08-10T00:40:40.469Z,979.37
2022-08-10T00:41:40.861Z,979.43
2022-08-10T00:42:40.590Z,979.43
2022-08-10T00:43:40.369Z,979.43
2022-08-10T00:44:40.358Z,979.39
2022-08-10T00:45:40.438Z,979.38
2022-08-10T00:46:40.369Z,979.39
2022-08-10T00:47:40.312Z,979.37
2022-08-10T00:48:40.278Z,979.34
2022-08-10T00:49:40.754Z,979.32
2022-08-10T00:50:40.254Z,979.35
2022-08-10T00:51:48.033Z,979.36
2022-08-10T00:52:41.650Z,979.39
2022-08-10T00:53:40.209Z,979.36
2022-08-10T00:54:40.215Z,979.38
2022-08-10T00:56:34.872Z,979.39
2022-08-10T00:57:17.540Z,979.41
2022-08-10T00:57:41.179Z,979.38
2022-08-10T00:58:40.135Z,979.39
2022-08-10T00:59:59.138Z,979.45
2022-08-10T01:00:41.100Z,979.40
2022-08-10T01:02:08.996Z,979.33
2022-08-10T01:02:41.135Z,979.29
2022-08-10T01:04:36.369Z,979.28
2022-08-10T01:05:00.328Z,979.31
2022-08-10T01:05:51.663Z,979.32
2022-08-10T01:06:41.134Z,979.24
2022-08-10T01:07:39.994Z,979.31
2022-08-10T01:08:39.973Z,979.24
2022-08-10T01:09:39.955Z,979.30
2022-08-10T01:10:39.939Z,979.28
2022-08-10T01:12:39.509Z,979.24
2022-08-10T01:12:41.650Z,979.21
2022-08-10T01:13:40.988Z,979.22
2022-08-10T01:14:40.889Z,979.16
2022-08-10T01:15:39.898Z,979.19
2022-08-10T01:16:39.851Z,979.14
2022-08-10T01:17:50.867Z,979.21
2022-08-10T01:18:40.867Z,979.19
2022-08-10T01:19:39.805Z,979.14
2022-08-10T01:20:39.789Z,979.20
2022-08-10T01:21:39.756Z,979.18
2022-08-10T01:22:39.784Z,979.19
2022-08-10T01:23:39.729Z,979.19
2022-08-10T01:24:39.723Z,979.20
2022-08-10T01:26:11.615Z,979.13
2022-08-10T01:26:41.110Z,979.14
2022-08-10T01:27:39.688Z,979.18
2022-08-10T01:28:39.646Z,979.16
2022-08-10T01:29:39.794Z,979.15
2022-08-10T01:30:39.637Z,979.20
2022-08-10T01:31:39.598Z,979.13
2022-08-10T01:32:39.615Z,979.18
2022-08-10T01:33:58.684Z,979.17
2022-08-10T01:34:40.555Z,979.18
2022-08-10T01:35:39.538Z,979.22
2022-08-10T01:36:39.531Z,979.23
2022-08-10T01:37:39.543Z,979.19
2022-08-10T01:38:39.499Z,979.20
2022-08-10T01:39:39.526Z,979.25
2022-08-10T01:40:39.501Z,979.18
2022-08-10T01:41:40.919Z,979.19
2022-08-10T01:42:40.440Z,979.19
2022-08-10T01:43:39.394Z,979.23
2022-08-10T01:44:39.409Z,979.22
2022-08-10T01:45:44.927Z,979.17
2022-08-10T01:46:40.360Z,979.22
2022-08-10T01:47:39.376Z,979.24
2022-08-10T01:48:39.326Z,979.22
2022-08-10T01:49:39.321Z,979.18
2022-08-10T01:50:58.976Z,979.18
2022-08-10T01:51:40.278Z,979.16
2022-08-10T01:52:39.302Z,979.18
2022-08-10T01:53:39.965Z,979.24
2022-08-10T01:54:39.217Z,979.23
2022-08-10T01:55:39.224Z,979.23
2022-08-10T01:56:39.186Z,979.20
2022-08-10T01:57:39.263Z,979.27
2022-08-10T01:58:39.151Z,979.21
2022-08-10T01:59:39.141Z,979.19
2022-08-10T02:00:39.191Z,979.29
2022-08-10T02:01:39.224Z,979.23
2022-08-10T02:02:39.148Z,979.24
2022-08-10T02:04:04.522Z,979.21
2022-08-10T02:04:40.057Z,979.21
2022-08-10T02:05:39.053Z,979.19
2022-08-10T02:06:39.048Z,979.15
2022-08-10T02:07:39.050Z,979.18
2022-08-10T02:08:39.094Z,979.13
2022-08-10T02:09:38.990Z,979.13
2022-08-10T02:10:38.979Z,979.18
2022-08-10T02:12:05.090Z,979.16
2022-08-10T02:12:41.193Z,979.19
2022-08-10T02:13:38.980Z,979.11
2022-08-10T02:14:38.900Z,979.14
2022-08-10T02:15:38.891Z,979.18
2022-08-10T02:16:39.869Z,979.13
2022-08-10T02:17:59.678Z,979.20
2022-08-10T02:18:39.827Z,979.15
2022-08-10T02:19:38.877Z,979.15
2022-08-10T02:20:38.813Z,979.15
2022-08-10T02:21:38.795Z,979.15
2022-08-10T02:22:39.823Z,979.11
2022-08-10T02:23:39.752Z,979.16
2022-08-10T02:24:38.849Z,979.12
2022-08-10T02:25:42.393Z,979.13
2022-08-10T02:26:38.712Z,979.13
2022-08-10T02:27:38.822Z,979.12
2022-08-10T02:28:38.677Z,979.12
2022-08-10T02:29:38.687Z,979.16
2022-08-10T02:30:38.679Z,979.14
2022-08-10T02:31:38.782Z,979.18
2022-08-10T02:32:38.794Z,979.18
2022-08-10T02:33:38.600Z,979.19
2022-08-10T02:34:39.580Z,979.17
2022-08-10T02:35:53.801Z,979.13
2022-08-10T02:36:39.600Z,979.18
2022-08-10T02:37:38.577Z,979.16
2022-08-10T02:38:59.728Z,979.21
2022-08-10T02:39:39.582Z,979.19
2022-08-10T02:42:18.427Z,979.19
2022-08-10T02:45:01.110Z,979.21
2022-08-10T02:45:16.272Z,979.25
2022-08-10T02:45:23.959Z,979.27
2022-08-10T02:45:27.815Z,979.22
2022-08-10T02:45:40.473Z,979.26
2022-08-10T02:46:38.779Z,979.18
2022-08-10T02:47:46.725Z,979.28
2022-08-10T02:48:39.437Z,979.17
2022-08-10T02:49:38.371Z,979.16
2022-08-10T02:50:38.329Z,979.24
2022-08-10T02:52:07.570Z,979.21
2022-08-10T02:52:39.347Z,979.17
2022-08-10T02:53:54.594Z,979.20
2022-08-10T02:54:39.256Z,979.19
2022-08-10T02:55:38.242Z,979.23
2022-08-10T02:56:38.242Z,979.23
2022-08-10T02:57:38.253Z,979.27
2022-08-10T02:58:39.187Z,979.25
2022-08-10T02:59:38.609Z,979.25
2022-08-10T03:00:38.333Z,979.21
2022-08-10T03:01:38.228Z,979.22
2022-08-10T03:02:38.150Z,979.27
2022-08-10T03:03:38.646Z,979.33
2022-08-10T03:04:56.982Z,979.29
2022-08-10T03:05:39.074Z,979.27
2022-08-10T03:06:38.072Z,979.24
2022-08-10T03:07:43.698Z,979.27
2022-08-10T03:08:39.041Z,979.28
2022-08-10T03:09:38.028Z,979.27
2022-08-10T03:10:39.657Z,979.25
2022-08-10T03:12:35.972Z,979.28
2022-08-10T03:12:38.993Z,979.26
2022-08-10T03:13:38.975Z,979.26
2022-08-10T03:14:37.977Z,979.24
2022-08-10T03:15:37.927Z,979.26
2022-08-10T03:16:37.925Z,979.30
2022-08-10T03:17:37.927Z,979.24
2022-08-10T03:18:37.894Z,979.25
2022-08-10T03:20:35.313Z,979.27
2022-08-10T03:20:39.859Z,979.29
2022-08-10T03:21:38.846Z,979.26
2022-08-10T03:22:37.835Z,979.23
2022-08-10T03:23:37.843Z,979.23
2022-08-10T03:24:37.791Z,979.21
2022-08-10T03:25:37.779Z,979.26
2022-08-10T03:26:37.741Z,979.25
2022-08-10T03:27:37.761Z,979.27
2022-08-10T03:28:37.709Z,979.23
2022-08-10T03:30:29.983Z,979.23
2022-08-10T03:30:38.691Z,979.33
2022-08-10T03:31:40.127Z,979.22
2022-08-10T03:32:37.683Z,979.31
2022-08-10T03:33:37.635Z,979.30
2022-08-10T03:34:37.615Z,979.29
2022-08-10T03:35:37.663Z,979.33
2022-08-10T03:36:41.783Z,979.32
2022-08-10T03:37:38.599Z,979.37
2022-08-10T03:38:37.535Z,979.27
2022-08-10T03:39:37.579Z,979.31
2022-08-10T03:40:46.353Z,979.29
2022-08-10T03:41:38.501Z,979.32
2022-08-10T03:42:38.476Z,979.29
2022-08-10T03:43:37.516Z,979.31
2022-08-10T03:44:37.464Z,979.30
2022-08-10T03:45:54.874Z,979.27
2022-08-10T03:46:39.489Z,979.28
2022-08-10T03:47:37.451Z,979.28
2022-08-10T03:48:49.047Z,979.31
2022-08-10T03:49:38.355Z,979.27
2022-08-10T03:50:50.808Z,979.23
2022-08-10T03:51:38.337Z,979.26
2022-08-10T03:52:37.412Z,979.26
2022-08-10T03:54:06.009Z,979.24
2022-08-10T03:54:38.297Z,979.29
2022-08-10T03:56:28.428Z,979.23
2022-08-10T03:56:38.273Z,979.27
2022-08-10T03:57:49.257Z,979.26
2022-08-10T03:58:38.280Z,979.24
2022-08-10T03:59:37.213Z,979.33
2022-08-10T04:00:37.263Z,979.27
2022-08-10T04:02:45.386Z,979.26
2022-08-10T04:02:52.107Z,979.23
2022-08-10T04:03:38.169Z,979.28
2022-08-10T04:04:37.141Z,979.25
2022-08-10T04:05:38.523Z,979.29
2022-08-10T04:06:37.146Z,979.27
2022-08-10T04:07:37.103Z,979.32
2022-08-10T04:08:37.094Z,979.31
2022-08-10T04:09:53.415Z,979.31
2022-08-10T04:10:38.058Z,979.32
2022-08-10T04:11:37.032Z,979.29
2022-08-10T04:12:37.170Z,979.27
2022-08-10T04:13:37.011Z,979.33
2022-08-10T04:14:49.840Z,979.39
2022-08-10T04:15:37.972Z,979.37
2022-08-10T04:16:37.008Z,979.40
2022-08-10T04:18:03.061Z,979.37
2022-08-10T04:18:37.946Z,979.41
2022-08-10T04:19:36.871Z,979.34
2022-08-10T04:20:36.873Z,979.32
2022-08-10T04:21:36.861Z,979.28
2022-08-10T04:22:37.168Z,979.31
2022-08-10T04:23:36.851Z,979.31
2022-08-10T04:24:36.805Z,979.33
2022-08-10T04:25:36.796Z,979.32
2022-08-10T04:26:36.769Z,979.26
2022-08-10T04:27:36.760Z,979.30
2022-08-10T04:28:36.768Z,979.28
2022-08-10T04:29:36.737Z,979.28
2022-08-10T04:30:36.791Z,979.33
2022-08-10T04:31:36.718Z,979.30
2022-08-10T04:32:36.891Z,979.27
2022-08-10T04:33:36.688Z,979.31
2022-08-10T04:34:36.655Z,979.27
2022-08-10T04:35:36.642Z,979.27
2022-08-10T04:36:36.737Z,979.34
2022-08-10T04:37:36.589Z,979.33
2022-08-10T04:38:37.627Z,979.32
2022-08-10T04:39:36.672Z,979.35
2022-08-10T04:40:36.589Z,979.27
2022-08-10T04:41:37.561Z,979.26
2022-08-10T04:42:37.575Z,979.30
2022-08-10T04:43:36.540Z,979.26
2022-08-10T04:44:36.499Z,979.32
2022-08-10T04:45:49.751Z,979.26
2022-08-10T04:46:56.573Z,979.31
2022-08-10T04:47:51.108Z,979.28
2022-08-10T04:48:37.461Z,979.32
2022-08-10T04:49:55.550Z,979.37
2022-08-10T04:50:37.489Z,979.29
2022-08-10T04:51:36.381Z,979.32
2022-08-10T04:52:36.623Z,979.28
2022-08-10T04:54:04.631Z,979.37
2022-08-10T04:54:37.322Z,979.33
2022-08-10T04:55:36.312Z,979.41
2022-08-10T04:56:36.330Z,979.28
2022-08-10T04:57:36.276Z,979.29
2022-08-10T04:58:36.283Z,979.28
2022-08-10T04:59:36.262Z,979.30
2022-08-10T05:00:36.340Z,979.32
2022-08-10T05:02:21.778Z,979.29
2022-08-10T05:02:37.193Z,979.33
2022-08-10T05:04:34.699Z,979.28
2022-08-10T05:04:39.363Z,979.32
2022-08-10T05:05:37.159Z,979.31
2022-08-10T05:06:36.141Z,979.25
2022-08-10T05:07:44.739Z,979.17
2022-08-10T05:08:37.133Z,979.21
2022-08-10T05:10:02.556Z,979.19
2022-08-10T05:10:37.086Z,979.24
2022-08-10T05:11:36.078Z,979.29
2022-08-10T05:12:37.407Z,979.31
2022-08-10T05:13:36.102Z,979.30
2022-08-10T05:14:35.996Z,979.34
2022-08-10T05:15:36.009Z,979.34
2022-08-10T05:16:35.995Z,979.33
2022-08-10T05:17:36.102Z,979.33
2022-08-10T05:18:35.976Z,979.34
2022-08-10T05:20:03.757Z,979.36
2022-08-10T05:20:36.938Z,979.44
2022-08-10T05:22:04.014Z,979.36
2022-08-10T05:22:37.212Z,979.33
2022-08-10T05:23:35.858Z,979.34
2022-08-10T05:24:35.896Z,979.37
2022-08-10T05:25:37.423Z,979.32
2022-08-10T05:26:40.478Z,979.19
2022-08-10T05:27:37.822Z,979.30
2022-08-10T05:28:35.772Z,979.35
2022-08-10T05:29:35.786Z,979.42
2022-08-10T05:30:35.794Z,979.30
2022-08-10T05:31:35.732Z,979.30
2022-08-10T05:32:58.203Z,979.36
2022-08-10T05:33:36.693Z,979.39
2022-08-10T05:34:35.720Z,979.40
2022-08-10T05:35:55.187Z,979.43
2022-08-10T05:36:36.651Z,979.41
2022-08-10T05:38:10.908Z,979.34
2022-08-10T05:38:36.678Z,979.40
2022-08-10T05:39:35.800Z,979.39
2022-08-10T05:40:35.645Z,979.39
2022-08-10T05:41:35.567Z,979.34
2022-08-10T05:42:35.740Z,979.33
2022-08-10T05:43:35.528Z,979.15
2022-08-10T05:44:35.562Z,979.30
2022-08-10T05:46:18.780Z,979.32
2022-08-10T05:46:36.493Z,979.28
2022-08-10T05:48:41.896Z,979.46
2022-08-10T05:48:56.087Z,979.34
2022-08-10T05:49:36.495Z,979.42
2022-08-10T05:50:35.507Z,979.41
2022-08-10T05:51:35.430Z,979.40
2022-08-10T05:52:48.071Z,979.46
2022-08-10T05:54:01.256Z,979.49
2022-08-10T05:54:36.473Z,979.51
2022-08-10T05:55:35.445Z,979.45
2022-08-10T05:56:55.937Z,979.50
2022-08-10T05:57:36.349Z,979.48
2022-08-10T05:58:35.320Z,979.39
2022-08-10T06:00:32.930Z,979.44
2022-08-10T06:00:41.824Z,979.47
2022-08-10T06:01:37.415Z,979.41
2022-08-10T06:02:35.910Z,979.50
2022-08-10T06:03:36.591Z,979.49
2022-08-10T06:04:35.400Z,979.50
2022-08-10T06:05:35.237Z,979.41
2022-08-10T06:06:35.241Z,979.42
2022-08-10T06:07:35.328Z,979.32
2022-08-10T06:08:35.193Z,979.37
2022-08-10T06:09:39.236Z,979.39
2022-08-10T06:10:37.144Z,979.52
2022-08-10T06:12:23.858Z,979.54
2022-08-10T06:12:54.370Z,979.49
2022-08-10T06:14:00.110Z,979.51
2022-08-10T06:14:36.146Z,979.57
2022-08-10T06:15:52.182Z,979.53
2022-08-10T06:16:36.098Z,979.52
2022-08-10T06:17:35.051Z,979.57
2022-08-10T06:18:35.124Z,979.53
2022-08-10T06:19:35.041Z,979.50
2022-08-10T06:20:36.193Z,979.47
2022-08-10T06:21:36.034Z,979.57
2022-08-10T06:22:35.068Z,979.57
2022-08-10T06:23:34.944Z,979.53
2022-08-10T06:24:35.033Z,979.52
2022-08-10T06:26:36.915Z,979.49
2022-08-10T06:27:35.152Z,979.53
2022-08-10T06:28:34.963Z,979.56
2022-08-10T06:29:34.925Z,979.45
2022-08-10T06:30:35.354Z,979.42
2022-08-10T06:31:46.670Z,979.42
2022-08-10T06:32:37.045Z,979.51
2022-08-10T06:33:34.872Z,979.63
2022-08-10T06:34:35.779Z,979.47
2022-08-10T06:35:34.794Z,979.52
2022-08-10T06:36:34.811Z,979.58
2022-08-10T06:37:34.792Z,979.60
2022-08-10T06:38:34.817Z,979.52
2022-08-10T06:39:35.841Z,979.46
2022-08-10T06:40:35.718Z,979.44
2022-08-10T06:41:57.816Z,979.36
2022-08-10T06:42:35.793Z,979.36
2022-08-10T06:43:34.697Z,979.43
2022-08-10T06:44:34.688Z,979.45
2022-08-10T06:45:34.726Z,979.42
2022-08-10T06:46:34.637Z,979.55
2022-08-10T06:47:34.656Z,979.47
2022-08-10T06:48:34.605Z,979.51
2022-08-10T06:49:34.630Z,979.57
2022-08-10T06:50:56.212Z,979.64
2022-08-10T06:51:35.562Z,979.66
2022-08-10T06:52:34.712Z,979.78
2022-08-10T06:53:53.846Z,979.72
2022-08-10T06:54:35.649Z,979.76
2022-08-10T06:55:49.665Z,979.74
2022-08-10T06:56:37.688Z,979.74
2022-08-10T06:57:35.419Z,979.73
2022-08-10T06:58:34.412Z,979.77
2022-08-10T06:59:34.415Z,979.81
2022-08-10T07:00:34.751Z,979.71
2022-08-10T07:01:34.414Z,979.78
2022-08-10T07:02:34.474Z,979.77
2022-08-10T07:03:34.359Z,979.73
2022-08-10T07:04:34.504Z,979.72
2022-08-10T07:05:34.294Z,979.77
2022-08-10T07:06:34.314Z,979.73
2022-08-10T07:07:34.279Z,979.77
2022-08-10T07:08:34.316Z,979.74
2022-08-10T07:09:34.284Z,979.71
2022-08-10T07:10:46.113Z,979.72
2022-08-10T07:11:35.289Z,979.69
2022-08-10T07:12:34.402Z,979.66
2022-08-10T07:14:15.970Z,979.71
2022-08-10T07:14:35.585Z,979.70
2022-08-10T07:16:00.144Z,979.72
2022-08-10T07:16:35.181Z,979.71
2022-08-10T07:17:39.142Z,979.64
2022-08-10T07:18:36.128Z,979.73
2022-08-10T07:19:34.158Z,979.69
2022-08-10T07:20:35.142Z,979.72
2022-08-10T07:21:34.092Z,979.75
2022-08-10T07:23:08.587Z,979.68
2022-08-10T07:23:57.491Z,979.66
2022-08-10T07:24:35.136Z,979.72
2022-08-10T07:25:34.084Z,979.73
2022-08-10T07:26:34.022Z,979.67
2022-08-10T07:27:39.287Z,979.76
2022-08-10T07:28:35.005Z,979.75
2022-08-10T07:29:54.027Z,979.74
2022-08-10T07:30:35.039Z,979.71
2022-08-10T07:31:55.704Z,979.70
2022-08-10T07:32:35.059Z,979.69
2022-08-10T07:33:33.949Z,979.66
2022-08-10T07:34:33.880Z,979.67
2022-08-10T07:35:42.548Z,979.65
2022-08-10T07:36:35.849Z,979.64
2022-08-10T07:37:34.404Z,979.67
2022-08-10T07:38:33.908Z,979.60
2022-08-10T07:39:58.445Z,979.56
2022-08-10T07:40:34.955Z,979.56
2022-08-10T07:41:33.838Z,979.62
2022-08-10T07:42:33.818Z,979.55
2022-08-10T07:43:33.759Z,979.60
2022-08-10T07:44:33.883Z,979.57
2022-08-10T07:45:33.821Z,979.64
2022-08-10T07:46:33.724Z,979.57
2022-08-10T07:47:53.832Z,979.54
2022-08-10T07:48:34.711Z,979.51
2022-08-10T07:49:34.228Z,979.53
2022-08-10T07:50:36.165Z,979.57
2022-08-10T07:51:33.722Z,979.49
2022-08-10T07:52:33.647Z,979.50
2022-08-10T07:53:33.643Z,979.50
2022-08-10T07:54:33.620Z,979.56
2022-08-10T07:56:05.544Z,979.56
2022-08-10T07:56:48.568Z,979.46
2022-08-10T07:57:40.035Z,979.54
2022-08-10T07:58:34.582Z,979.46
2022-08-10T07:59:33.558Z,979.50
2022-08-10T08:00:33.596Z,979.48
2022-08-10T08:01:33.664Z,979.45
2022-08-10T08:02:35.798Z,979.47
2022-08-10T08:03:33.511Z,979.42
2022-08-10T08:04:33.477Z,979.49
2022-08-10T08:05:57.391Z,979.48
2022-08-10T08:06:34.448Z,979.49
2022-08-10T08:07:33.447Z,979.52
2022-08-10T08:08:33.549Z,979.56
2022-08-10T08:09:33.432Z,979.49
2022-08-10T08:10:33.468Z,979.47
2022-08-10T08:11:33.527Z,979.50
2022-08-10T08:12:36.944Z,979.52
2022-08-10T08:13:35.390Z,979.50
2022-08-10T08:14:34.386Z,979.47
2022-08-10T08:16:17.221Z,979.53
2022-08-10T08:16:34.327Z,979.48
2022-08-10T08:17:35.700Z,979.51
2022-08-10T08:18:33.341Z,979.58
2022-08-10T08:19:37.642Z,979.60
2022-08-10T08:20:34.312Z,979.51
2022-08-10T08:24:04.650Z,979.58
2022-08-10T08:24:08.087Z,979.62
2022-08-10T08:24:10.317Z,979.53
2022-08-10T08:24:34.679Z,979.55
2022-08-10T08:25:34.237Z,979.61
2022-08-10T08:26:33.228Z,979.64
2022-08-10T08:27:33.189Z,979.54
2022-08-10T08:28:33.206Z,979.54
2022-08-10T08:29:33.170Z,979.52
2022-08-10T08:30:33.198Z,979.59
2022-08-10T08:31:33.153Z,979.50
2022-08-10T08:32:33.158Z,979.47
2022-08-10T08:33:41.809Z,979.56
2022-08-10T08:34:34.149Z,979.44
2022-08-10T08:35:33.117Z,979.52
2022-08-10T08:36:33.103Z,979.46
2022-08-10T08:38:31.568Z,979.49
2022-08-10T08:38:35.037Z,979.40
2022-08-10T08:39:34.069Z,979.41
2022-08-10T08:40:34.084Z,979.43
2022-08-10T08:41:33.011Z,979.37
2022-08-10T08:42:34.027Z,979.36
2022-08-10T08:43:32.990Z,979.45
2022-08-10T08:44:34.970Z,979.40
2022-08-10T08:45:34.010Z,979.45
2022-08-10T08:46:32.960Z,979.45
2022-08-10T08:48:04.049Z,979.41
2022-08-10T08:48:34.012Z,979.41
2022-08-10T08:50:08.262Z,979.43
2022-08-10T08:50:34.000Z,979.47
2022-08-10T08:52:09.176Z,979.48
2022-08-10T08:52:33.889Z,979.37
2022-08-10T08:54:01.712Z,979.42
2022-08-10T08:54:33.864Z,979.37
2022-08-10T08:56:03.749Z,979.38
2022-08-10T08:56:33.838Z,979.39
2022-08-10T08:57:50.616Z,979.43
2022-08-10T08:58:33.801Z,979.34
2022-08-10T08:59:32.833Z,979.41
2022-08-10T09:00:32.854Z,979.38
2022-08-10T09:01:38.164Z,979.38
2022-08-10T09:02:33.811Z,979.42
2022-08-10T09:03:32.754Z,979.41
2022-08-10T09:04:32.724Z,979.37
2022-08-10T09:05:32.722Z,979.50
2022-08-10T09:06:33.769Z,979.44
2022-08-10T09:07:59.404Z,979.45
2022-08-10T09:08:33.719Z,979.44
2022-08-10T09:09:32.672Z,979.44
2022-08-10T09:10:37.160Z,979.41
2022-08-10T09:11:33.707Z,979.39
2022-08-10T09:12:32.709Z,979.47
2022-08-10T09:13:32.628Z,979.46
2022-08-10T09:14:32.620Z,979.35
2022-08-10T09:15:39.821Z,979.38
2022-08-10T09:16:33.631Z,979.36
2022-08-10T09:17:32.616Z,979.35
2022-08-10T09:18:32.583Z,979.38
2022-08-10T09:19:36.304Z,979.33
2022-08-10T09:20:32.568Z,979.27
2022-08-10T09:21:32.545Z,979.24
2022-08-10T09:22:32.623Z,979.23
2022-08-10T09:24:04.918Z,979.27
2022-08-10T09:24:33.524Z,979.30
2022-08-10T09:25:32.506Z,979.24
2022-08-10T09:26:32.513Z,979.27
2022-08-10T09:27:33.916Z,979.18
2022-08-10T09:28:32.484Z,979.30
2022-08-10T09:29:32.471Z,979.21
2022-08-10T09:30:35.742Z,979.22
2022-08-10T09:31:37.498Z,979.16
2022-08-10T09:35:39.969Z,979.27
2022-08-10T09:36:22.959Z,979.23
2022-08-10T09:36:23.157Z,979.20
2022-08-10T09:36:24.246Z,979.20
2022-08-10T09:36:34.029Z,979.20
2022-08-10T09:37:42.512Z,979.17
2022-08-10T09:38:33.330Z,979.13
2022-08-10T09:40:12.391Z,979.16
2022-08-10T09:40:59.955Z,979.07
2022-08-10T09:41:33.407Z,979.14
2022-08-10T09:42:32.348Z,979.19
2022-08-10T09:43:32.251Z,979.14
2022-08-10T09:44:32.269Z,979.17
2022-08-10T09:45:32.285Z,979.10
2022-08-10T09:46:32.252Z,979.00
2022-08-10T09:48:02.426Z,979.07
2022-08-10T09:48:33.180Z,979.04
2022-08-10T09:49:53.882Z,979.09
2022-08-10T09:51:16.034Z,979.09
2022-08-10T09:51:45.376Z,979.06
2022-08-10T09:52:34.146Z,978.99
2022-08-10T09:53:32.123Z,978.97
2022-08-10T09:54:32.145Z,978.95
2022-08-10T09:56:17.607Z,978.95
2022-08-10T09:56:33.148Z,978.94
2022-08-10T09:57:44.206Z,978.83
2022-08-10T09:58:34.500Z,978.82
2022-08-10T10:00:01.566Z,978.84
2022-08-10T10:00:33.049Z,978.85
2022-08-10T10:02:00.624Z,978.88
2022-08-10T10:02:33.012Z,978.92
2022-08-10T10:03:32.107Z,978.85
2022-08-10T10:04:31.996Z,978.77
2022-08-10T10:05:31.994Z,978.76
2022-08-10T10:06:31.989Z,978.77
2022-08-10T10:07:31.988Z,978.79
2022-08-10T10:08:31.959Z,978.78
2022-08-10T10:09:31.975Z,978.74
2022-08-10T10:10:32.104Z,978.72
2022-08-10T10:11:31.946Z,978.67
2022-08-10T10:12:31.954Z,978.72
2022-08-10T10:13:41.588Z,978.76
2022-08-10T10:14:32.868Z,978.72
2022-08-10T10:15:31.869Z,978.77
2022-08-10T10:16:31.900Z,978.82
2022-08-10T10:17:31.823Z,978.69
2022-08-10T10:18:31.819Z,978.74
2022-08-10T10:19:31.799Z,978.73
2022-08-10T10:20:31.796Z,978.79
2022-08-10T10:21:55.765Z,978.76
2022-08-10T10:22:32.783Z,978.76
2022-08-10T10:23:31.787Z,978.79
2022-08-10T10:24:31.776Z,978.66
2022-08-10T10:25:50.196Z,978.69
2022-08-10T10:26:32.754Z,978.71
2022-08-10T10:27:31.702Z,978.66
2022-08-10T10:28:57.434Z,978.64
2022-08-10T10:29:56.445Z,978.58
2022-08-10T10:30:33.717Z,978.63
2022-08-10T10:31:31.684Z,978.62
2022-08-10T10:32:31.992Z,978.56
2022-08-10T10:33:32.617Z,978.61
2022-08-10T10:34:31.622Z,978.60
2022-08-10T10:35:31.572Z,978.59
2022-08-10T10:36:31.614Z,978.64
2022-08-10T10:37:31.560Z,978.58
2022-08-10T10:38:32.559Z,978.57
2022-08-10T10:39:31.552Z,978.59
2022-08-10T10:40:31.554Z,978.56
2022-08-10T10:41:31.538Z,978.56
2022-08-10T10:42:46.056Z,978.55
2022-08-10T10:43:33.464Z,978.51
2022-08-10T10:44:31.475Z,978.51
2022-08-10T10:45:31.453Z,978.51
2022-08-10T10:46:31.471Z,978.56
2022-08-10T10:47:31.456Z,978.65
2022-08-10T10:48:31.452Z,978.50
2022-08-10T10:49:31.388Z,978.57
2022-08-10T10:50:31.442Z,978.55
2022-08-10T10:51:31.410Z,978.55
2022-08-10T10:52:31.361Z,978.49
2022-08-10T10:53:31.349Z,978.49
2022-08-10T10:54:31.340Z,978.43
2022-08-10T10:55:31.334Z,978.57
2022-08-10T10:56:31.391Z,978.55
2022-08-10T10:57:59.880Z,978.59
2022-08-10T10:58:32.273Z,978.54
2022-08-10T10:59:56.098Z,978.57
2022-08-10T11:00:32.239Z,978.47
2022-08-10T11:01:31.290Z,978.52
2022-08-10T11:02:31.185Z,978.63
2022-08-10T11:03:31.194Z,978.51
2022-08-10T11:04:31.171Z,978.48
2022-08-10T11:05:31.159Z,978.47
2022-08-10T11:06:40.270Z,978.54
2022-08-10T11:07:33.789Z,978.51
2022-08-10T11:08:31.114Z,978.52
2022-08-10T11:10:06.089Z,978.49
2022-08-10T11:10:34.658Z,978.50
2022-08-10T11:12:00.398Z,978.52
2022-08-10T11:12:32.211Z,978.45
2022-08-10T11:14:23.561Z,978.34
2022-08-10T11:14:32.014Z,978.41
2022-08-10T11:15:30.982Z,978.42
2022-08-10T11:16:31.029Z,978.47
2022-08-10T11:17:30.961Z,978.39
2022-08-10T11:18:30.953Z,978.42
2022-08-10T11:20:02.123Z,978.43
2022-08-10T11:20:31.942Z,978.42
2022-08-10T11:21:30.943Z,978.34
2022-08-10T11:22:30.999Z,978.40
2022-08-10T11:23:31.871Z,978.35
2022-08-10T11:24:47.309Z,978.34
2022-08-10T11:25:31.859Z,978.33
2022-08-10T11:26:30.855Z,978.30
2022-08-10T11:27:30.820Z,978.41
2022-08-10T11:28:30.798Z,978.36
2022-08-10T11:29:31.784Z,978.29
2022-08-10T11:30:30.811Z,978.38
2022-08-10T11:31:30.778Z,978.32
2022-08-10T11:32:30.731Z,978.32
2022-08-10T11:33:32.791Z,978.43
2022-08-10T11:34:49.156Z,978.36
2022-08-10T11:35:34.816Z,978.31
2022-08-10T11:36:31.720Z,978.35
2022-08-10T11:37:30.657Z,978.34
2022-08-10T11:38:42.788Z,978.36
2022-08-10T11:39:31.652Z,978.32
2022-08-10T11:40:31.179Z,978.39
2022-08-10T11:42:11.701Z,978.37
2022-08-10T11:42:35.499Z,978.37
2022-08-10T11:43:31.573Z,978.33
2022-08-10T11:44:30.892Z,978.36
2022-08-10T11:45:30.586Z,978.36
2022-08-10T11:46:30.567Z,978.34
2022-08-10T11:47:30.518Z,978.30
2022-08-10T11:48:53.755Z,978.32
2022-08-10T11:49:31.501Z,978.30
2022-08-10T11:50:30.508Z,978.25
2022-08-10T11:51:30.520Z,978.37
2022-08-10T11:52:30.457Z,978.41
2022-08-10T11:54:04.033Z,978.39
2022-08-10T11:54:30.495Z,978.36
2022-08-10T11:55:30.438Z,978.42
2022-08-10T11:56:30.462Z,978.29
2022-08-10T11:57:53.483Z,978.35
2022-08-10T11:58:31.430Z,978.29
2022-08-10T11:59:30.417Z,978.35
2022-08-10T12:00:32.486Z,978.29
2022-08-10T12:01:30.401Z,978.34
2022-08-10T12:02:30.495Z,978.24
2022-08-10T12:03:34.436Z,978.23
2022-08-10T12:04:31.321Z,978.19
2022-08-10T12:05:51.936Z,978.22
2022-08-10T12:06:54.155Z,978.23
2022-08-10T12:08:54.879Z,978.21
2022-08-10T12:10:08.702Z,978.26
2022-08-10T12:10:10.825Z,978.18
2022-08-10T12:10:31.281Z,978.17
2022-08-10T12:11:30.276Z,978.12
2022-08-10T12:12:30.240Z,978.13
2022-08-10T12:13:30.182Z,978.10
2022-08-10T12:14:30.221Z,978.12
2022-08-10T12:15:30.106Z,978.11
2022-08-10T12:16:30.157Z,978.03
2022-08-10T12:17:30.095Z,978.09
2022-08-10T12:18:30.097Z,978.14
2022-08-10T12:19:30.040Z,978.07
2022-08-10T12:20:31.122Z,978.09
2022-08-10T12:21:30.068Z,978.07
2022-08-10T12:22:30.074Z,978.13
2022-08-10T12:23:29.974Z,978.10
2022-08-10T12:24:30.980Z,978.17
2022-08-10T12:25:57.691Z,978.13
2022-08-10T12:26:30.969Z,978.14
2022-08-10T12:27:30.008Z,978.05
2022-08-10T12:28:49.522Z,978.04
2022-08-10T12:29:30.878Z,978.07